Bookmark and Share
Track history (hours):
 

Maersk Weymouth

Last reported at 2014-Apr-06 18:14 UTC. Time now 2014-Apr-21 12:12 UTC.
Position N 09°45' W 016°42'.
Warning: this ship's position is 14 days out of date.

Length 172 m; draft 9.9 m.

Type: Cargo ship. MMSI: 477622100.

NotesDate/timePositionNaut miles runAvg speedWind from/ knotsBaromVisibWave heightAir tempDewpointWater temp
2014-Apr-06 18:14N 09°45' W 016°42'7 9.4
2014-Apr-06 17:30N 09°50' W 016°46'  
2014-Mar-29 23:22N 35°58' W 010°54'262326.8
2014-Mar-29 22:33N 35°59' W 005°30'8 7.5
2014-Mar-29 21:33N 36°05' W 005°23'5 4.9
2014-Mar-29 20:33N 36°09' W 005°26'0 0.0
2014-Mar-29 19:25N 36°09' W 005°26'0 0.0
2014-Mar-29 18:31N 36°09' W 005°26'0 0.0
2014-Mar-29 17:25N 36°09' W 005°26'0 0.0
2014-Mar-29 16:31N 36°09' W 005°26'0 0.0
2014-Mar-29 15:31N 36°09' W 005°26'0 0.0
2014-Mar-29 14:28N 36°09' W 005°26'0 0.0
2014-Mar-29 13:22N 36°09' W 005°26'0 0.0
2014-Mar-29 12:28N 36°09' W 005°26'0 0.0
2014-Mar-29 11:31N 36°09' W 005°26'0 0.0
2014-Mar-29 10:31N 36°09' W 005°26'0 0.0
2014-Mar-29 09:31N 36°09' W 005°26'0 0.0
2014-Mar-29 08:31N 36°09' W 005°26'0 0.0
2014-Mar-29 07:31N 36°09' W 005°26'0 0.0
2014-Mar-29 06:32N 36°09' W 005°26'2 2.4
2014-Mar-29 05:33N 36°08' W 005°24'4 4.3
2014-Mar-29 04:33N 36°04' W 005°21'5 4.8
2014-Mar-29 03:33N 35°60' W 005°19'9 8.7
2014-Mar-29 02:33N 35°57' W 005°30'8 7.1
2014-Mar-29 01:25N 35°55' W 005°39'7 7.0
2014-Mar-29 00:29N 35°54' W 005°47'9 6.4
2014-Mar-28 23:03N 35°53' W 005°58'  

Dump ship's entire track history

sailing weather and tide predictions

Maersk Weymouth — VRFS9 — position and weather